ITY1783 LIRF-LICJ
Flight info
| Callsign | ITY1783 |
|---|---|
| Flight time | 0h 46m |
| Altitude | 29000 |
| Route | SOSAK5DXROTUN8B/25 ROTUN DCT GIANO |
| Aircraft | A359/H-SDE2E3GHIJ1J3J4J5LM1ORWXY/LB1D1 |
Departure
| Time | 2026-05-01 12:01 |
|---|---|
| Airport | Rome–Fiumicino Leonardo da Vinci International Airport (LIRF) |
Arrival
| Time | 2026-05-01 12:47 |
|---|---|
| Airport | Falcone–Borsellino Airport (LICJ) |
| Time | Latitude | Longitude | Altitude | Speed | Heading |
|---|---|---|---|---|---|
| 2026-05-01 11:44 | 41.80297 | 12.26193 | 20 ft | 0 kts | 204° |
| 2026-05-01 11:54 | 41.80306 | 12.26198 | 22 ft | 2 kts | 210° |
| 2026-05-01 11:54 | 41.80319 | 12.26212 | 22 ft | 2 kts | 237° |
| 2026-05-01 11:54 | 41.80324 | 12.26233 | 23 ft | 2 kts | 276° |
| 2026-05-01 11:54 | 41.80320 | 12.26255 | 24 ft | 2 kts | 290° |
| 2026-05-01 11:55 | 41.80317 | 12.26264 | 22 ft | 0 kts | 293° |
| 2026-05-01 11:57 | 41.80327 | 12.26234 | 24 ft | 8 kts | 295° |
| 2026-05-01 11:57 | 41.80379 | 12.26178 | 21 ft | 11 kts | 341° |
| 2026-05-01 11:58 | 41.80461 | 12.26177 | 22 ft | 13 kts | 11° |
| 2026-05-01 11:58 | 41.80528 | 12.26252 | 22 ft | 14 kts | 58° |
| 2026-05-01 11:58 | 41.80613 | 12.26532 | 22 ft | 19 kts | 69° |
| 2026-05-01 11:59 | 41.80662 | 12.26708 | 23 ft | 21 kts | 70° |
| 2026-05-01 11:59 | 41.80715 | 12.26908 | 20 ft | 24 kts | 70° |
| 2026-05-01 11:59 | 41.80831 | 12.27032 | 20 ft | 23 kts | 353° |
| 2026-05-01 12:00 | 41.80901 | 12.26715 | 20 ft | 28 kts | 250° |
| 2026-05-01 12:00 | 41.80748 | 12.26161 | 31 ft | 103 kts | 250° |
| 2026-05-01 12:00 | 41.79865 | 12.23476 | 523 ft | 183 kts | 254° |
| 2026-05-01 12:01 | 41.79510 | 12.21817 | 1413 ft | 186 kts | 256° |
| 2026-05-01 12:01 | 41.79038 | 12.20199 | 2237 ft | 191 kts | 240° |
| 2026-05-01 12:01 | 41.78019 | 12.19023 | 2672 ft | 204 kts | 208° |
| 2026-05-01 12:01 | 41.76732 | 12.17989 | 2974 ft | 226 kts | 214° |
| 2026-05-01 12:02 | 41.75474 | 12.16686 | 3647 ft | 228 kts | 220° |
| 2026-05-01 12:02 | 41.74281 | 12.15333 | 4364 ft | 224 kts | 221° |
| 2026-05-01 12:02 | 41.73087 | 12.14008 | 5068 ft | 226 kts | 216° |
| 2026-05-01 12:02 | 41.71707 | 12.12918 | 5734 ft | 231 kts | 206° |
| 2026-05-01 12:03 | 41.70252 | 12.11939 | 6338 ft | 239 kts | 208° |
| 2026-05-01 12:03 | 41.68835 | 12.10711 | 6807 ft | 253 kts | 214° |
| 2026-05-01 12:03 | 41.67391 | 12.09359 | 7163 ft | 271 kts | 214° |
| 2026-05-01 12:03 | 41.65803 | 12.07885 | 7618 ft | 284 kts | 214° |
| 2026-05-01 12:04 | 41.64136 | 12.06345 | 8216 ft | 292 kts | 215° |
| 2026-05-01 12:04 | 41.62468 | 12.04808 | 8862 ft | 298 kts | 215° |
| 2026-05-01 12:04 | 41.60668 | 12.03394 | 9533 ft | 304 kts | 204° |
| 2026-05-01 12:04 | 41.58608 | 12.02734 | 10197 ft | 309 kts | 182° |
| 2026-05-01 12:05 | 41.56430 | 12.02841 | 10636 ft | 321 kts | 174° |
| 2026-05-01 12:05 | 41.51758 | 12.03558 | 11283 ft | 351 kts | 172° |
| 2026-05-01 12:05 | 41.49315 | 12.03960 | 11794 ft | 359 kts | 172° |
| 2026-05-01 12:06 | 41.46810 | 12.04371 | 12346 ft | 365 kts | 172° |
| 2026-05-01 12:06 | 41.44272 | 12.04789 | 12897 ft | 370 kts | 172° |
| 2026-05-01 12:06 | 41.41701 | 12.05216 | 13481 ft | 375 kts | 172° |
| 2026-05-01 12:06 | 41.39311 | 12.05609 | 14005 ft | 379 kts | 172° |
| 2026-05-01 12:07 | 41.36702 | 12.06034 | 14532 ft | 383 kts | 172° |
| 2026-05-01 12:07 | 41.34046 | 12.06465 | 15056 ft | 387 kts | 172° |
| 2026-05-01 12:07 | 41.31362 | 12.06897 | 15608 ft | 390 kts | 173° |
| 2026-05-01 12:07 | 41.28659 | 12.07332 | 16161 ft | 394 kts | 173° |
| 2026-05-01 12:08 | 41.25880 | 12.07778 | 16720 ft | 397 kts | 173° |
| 2026-05-01 12:08 | 41.23118 | 12.08221 | 17260 ft | 401 kts | 173° |
| 2026-05-01 12:08 | 41.20345 | 12.08665 | 17792 ft | 405 kts | 173° |
| 2026-05-01 12:08 | 41.17535 | 12.09115 | 18321 ft | 408 kts | 173° |
| 2026-05-01 12:09 | 41.14695 | 12.09569 | 18818 ft | 412 kts | 173° |
| 2026-05-01 12:09 | 41.12807 | 12.09871 | 19120 ft | 414 kts | 174° |
| 2026-05-01 12:09 | 41.08972 | 12.10485 | 19746 ft | 417 kts | 174° |
| 2026-05-01 12:09 | 41.07011 | 12.10799 | 20064 ft | 419 kts | 174° |
| 2026-05-01 12:10 | 41.04117 | 12.11266 | 20535 ft | 422 kts | 174° |
| 2026-05-01 12:10 | 40.98246 | 12.12216 | 21435 ft | 428 kts | 175° |
| 2026-05-01 12:10 | 40.95280 | 12.12691 | 21886 ft | 431 kts | 175° |
| 2026-05-01 12:11 | 40.89323 | 12.13638 | 22757 ft | 436 kts | 175° |
| 2026-05-01 12:11 | 40.86306 | 12.14116 | 23192 ft | 439 kts | 176° |
| 2026-05-01 12:11 | 40.83223 | 12.14605 | 23614 ft | 442 kts | 176° |
| 2026-05-01 12:12 | 40.80150 | 12.15090 | 23986 ft | 446 kts | 176° |
| 2026-05-01 12:12 | 40.77073 | 12.15576 | 24335 ft | 448 kts | 176° |
| 2026-05-01 12:12 | 40.74003 | 12.16061 | 24674 ft | 451 kts | 177° |
| 2026-05-01 12:12 | 40.70825 | 12.16562 | 25036 ft | 454 kts | 177° |
| 2026-05-01 12:13 | 40.67718 | 12.17052 | 25388 ft | 456 kts | 177° |
| 2026-05-01 12:13 | 40.64548 | 12.17551 | 25741 ft | 459 kts | 177° |
| 2026-05-01 12:13 | 40.61342 | 12.18055 | 26109 ft | 462 kts | 178° |
| 2026-05-01 12:13 | 40.58153 | 12.18556 | 26473 ft | 464 kts | 178° |
| 2026-05-01 12:14 | 40.54935 | 12.19061 | 26837 ft | 467 kts | 178° |
| 2026-05-01 12:14 | 40.51684 | 12.19571 | 27227 ft | 470 kts | 178° |
| 2026-05-01 12:14 | 40.48472 | 12.20074 | 27614 ft | 473 kts | 178° |
| 2026-05-01 12:14 | 40.45164 | 12.20591 | 28018 ft | 476 kts | 178° |
| 2026-05-01 12:15 | 40.41869 | 12.21104 | 28410 ft | 478 kts | 179° |
| 2026-05-01 12:15 | 40.38551 | 12.21620 | 28804 ft | 481 kts | 179° |
| 2026-05-01 12:15 | 40.35211 | 12.22140 | 29150 ft | 485 kts | 179° |
| 2026-05-01 12:15 | 40.31880 | 12.22663 | 29226 ft | 475 kts | 179° |
| 2026-05-01 12:16 | 40.28652 | 12.23177 | 29222 ft | 459 kts | 179° |
| 2026-05-01 12:16 | 40.25542 | 12.23670 | 29218 ft | 445 kts | 179° |
| 2026-05-01 12:16 | 40.19464 | 12.24616 | 29228 ft | 438 kts | 180° |
| 2026-05-01 12:17 | 40.13418 | 12.25547 | 29225 ft | 439 kts | 180° |
| 2026-05-01 12:17 | 40.07346 | 12.26485 | 29222 ft | 439 kts | 180° |
| 2026-05-01 12:18 | 40.01288 | 12.27421 | 29219 ft | 438 kts | 180° |
| 2026-05-01 12:18 | 39.95271 | 12.28349 | 29221 ft | 438 kts | 180° |
| 2026-05-01 12:19 | 39.89225 | 12.29281 | 29221 ft | 437 kts | 180° |
| 2026-05-01 12:19 | 39.83201 | 12.30207 | 29218 ft | 436 kts | 180° |
| 2026-05-01 12:20 | 39.77186 | 12.31130 | 29215 ft | 435 kts | 180° |
| 2026-05-01 12:20 | 39.71166 | 12.32053 | 29214 ft | 434 kts | 181° |
| 2026-05-01 12:21 | 39.65177 | 12.32968 | 29214 ft | 434 kts | 181° |
| 2026-05-01 12:21 | 39.59181 | 12.33884 | 29212 ft | 433 kts | 181° |
| 2026-05-01 12:22 | 39.53222 | 12.34791 | 29209 ft | 432 kts | 181° |
| 2026-05-01 12:22 | 39.47252 | 12.35699 | 29210 ft | 431 kts | 181° |
| 2026-05-01 12:23 | 39.41289 | 12.36605 | 29207 ft | 430 kts | 181° |
| 2026-05-01 12:23 | 39.35346 | 12.37505 | 29204 ft | 430 kts | 181° |
| 2026-05-01 12:24 | 39.29440 | 12.38399 | 29201 ft | 429 kts | 182° |
| 2026-05-01 12:24 | 39.23502 | 12.39296 | 29202 ft | 429 kts | 182° |
| 2026-05-01 12:25 | 39.14624 | 12.40634 | 29208 ft | 429 kts | 182° |
| 2026-05-01 12:26 | 39.08709 | 12.41526 | 29022 ft | 424 kts | 182° |
| 2026-05-01 12:26 | 39.02760 | 12.42408 | 27355 ft | 438 kts | 182° |
| 2026-05-01 12:26 | 38.99706 | 12.42846 | 26516 ft | 446 kts | 182° |
| 2026-05-01 12:27 | 38.96590 | 12.43286 | 25689 ft | 453 kts | 181° |
| 2026-05-01 12:27 | 38.90282 | 12.44210 | 24330 ft | 458 kts | 180° |
| 2026-05-01 12:28 | 38.84213 | 12.46840 | 23100 ft | 471 kts | 150° |
| 2026-05-01 12:28 | 38.81522 | 12.49239 | 22580 ft | 467 kts | 147° |
| 2026-05-01 12:28 | 38.76312 | 12.54021 | 21517 ft | 457 kts | 147° |
| 2026-05-01 12:29 | 38.73703 | 12.56369 | 20999 ft | 452 kts | 147° |
| 2026-05-01 12:29 | 38.71142 | 12.58653 | 20477 ft | 448 kts | 147° |
| 2026-05-01 12:29 | 38.66071 | 12.63137 | 19453 ft | 438 kts | 147° |
| 2026-05-01 12:30 | 38.61095 | 12.67516 | 18456 ft | 430 kts | 147° |
| 2026-05-01 12:30 | 38.58646 | 12.69666 | 17911 ft | 425 kts | 147° |
| 2026-05-01 12:30 | 38.56224 | 12.71790 | 17407 ft | 419 kts | 147° |
| 2026-05-01 12:31 | 38.53836 | 12.73884 | 16934 ft | 413 kts | 147° |
| 2026-05-01 12:31 | 38.51483 | 12.75944 | 16489 ft | 407 kts | 147° |
| 2026-05-01 12:31 | 38.49174 | 12.77975 | 16028 ft | 401 kts | 146° |
| 2026-05-01 12:31 | 38.47163 | 12.80330 | 15587 ft | 395 kts | 127° |
| 2026-05-01 12:32 | 38.45889 | 12.83420 | 15160 ft | 385 kts | 104° |
| 2026-05-01 12:32 | 38.46268 | 12.89803 | 14355 ft | 353 kts | 58° |
| 2026-05-01 12:32 | 38.47726 | 12.92154 | 14009 ft | 335 kts | 37° |
| 2026-05-01 12:33 | 38.49373 | 12.94211 | 13591 ft | 334 kts | 48° |
| 2026-05-01 12:33 | 38.50451 | 12.96832 | 13213 ft | 335 kts | 63° |
| 2026-05-01 12:33 | 38.51245 | 12.99655 | 12836 ft | 332 kts | 67° |
| 2026-05-01 12:33 | 38.51871 | 13.02431 | 12470 ft | 328 kts | 70° |
| 2026-05-01 12:34 | 38.52387 | 13.05264 | 12101 ft | 326 kts | 73° |
| 2026-05-01 12:34 | 38.52791 | 13.08104 | 11739 ft | 325 kts | 76° |
| 2026-05-01 12:34 | 38.53094 | 13.11005 | 11360 ft | 324 kts | 79° |
| 2026-05-01 12:34 | 38.53284 | 13.13817 | 11002 ft | 323 kts | 82° |
| 2026-05-01 12:35 | 38.53370 | 13.16649 | 10836 ft | 312 kts | 85° |
| 2026-05-01 12:35 | 38.53360 | 13.19377 | 10693 ft | 302 kts | 87° |
| 2026-05-01 12:35 | 38.53268 | 13.22005 | 10575 ft | 291 kts | 89° |
| 2026-05-01 12:35 | 38.53120 | 13.24557 | 10316 ft | 287 kts | 91° |
| 2026-05-01 12:36 | 38.52891 | 13.27078 | 10027 ft | 286 kts | 94° |
| 2026-05-01 12:36 | 38.52571 | 13.29645 | 9834 ft | 299 kts | 96° |
| 2026-05-01 12:36 | 38.52148 | 13.32256 | 9763 ft | 299 kts | 99° |
| 2026-05-01 12:36 | 38.51645 | 13.34783 | 9618 ft | 289 kts | 102° |
| 2026-05-01 12:37 | 38.51076 | 13.37208 | 9436 ft | 280 kts | 104° |
| 2026-05-01 12:37 | 38.50452 | 13.39533 | 9261 ft | 272 kts | 107° |
| 2026-05-01 12:37 | 38.49787 | 13.41736 | 9109 ft | 264 kts | 109° |
| 2026-05-01 12:37 | 38.49072 | 13.43865 | 8955 ft | 256 kts | 111° |
| 2026-05-01 12:38 | 38.48317 | 13.45912 | 8721 ft | 253 kts | 113° |
| 2026-05-01 12:38 | 38.47516 | 13.47890 | 8459 ft | 251 kts | 116° |
| 2026-05-01 12:38 | 38.46413 | 13.49605 | 8160 ft | 252 kts | 142° |
| 2026-05-01 12:38 | 38.44799 | 13.50356 | 7860 ft | 248 kts | 178° |
| 2026-05-01 12:39 | 38.43128 | 13.50220 | 7629 ft | 243 kts | 188° |
| 2026-05-01 12:39 | 38.41432 | 13.49925 | 7370 ft | 241 kts | 189° |
| 2026-05-01 12:39 | 38.39796 | 13.49636 | 7124 ft | 239 kts | 189° |
| 2026-05-01 12:39 | 38.38123 | 13.49334 | 6828 ft | 239 kts | 191° |
| 2026-05-01 12:40 | 38.36555 | 13.48783 | 6556 ft | 236 kts | 205° |
| 2026-05-01 12:40 | 38.35149 | 13.47738 | 6257 ft | 234 kts | 217° |
| 2026-05-01 12:40 | 38.33841 | 13.46504 | 5968 ft | 233 kts | 219° |
| 2026-05-01 12:40 | 38.32546 | 13.45250 | 5639 ft | 234 kts | 219° |
| 2026-05-01 12:41 | 38.31255 | 13.44001 | 5344 ft | 234 kts | 219° |
| 2026-05-01 12:41 | 38.29957 | 13.42749 | 5037 ft | 234 kts | 219° |
| 2026-05-01 12:41 | 38.28692 | 13.41461 | 4769 ft | 231 kts | 226° |
| 2026-05-01 12:41 | 38.27791 | 13.39800 | 4489 ft | 226 kts | 247° |
| 2026-05-01 12:42 | 38.27162 | 13.37971 | 4208 ft | 225 kts | 250° |
| 2026-05-01 12:42 | 38.26582 | 13.36167 | 4109 ft | 215 kts | 251° |
| 2026-05-01 12:42 | 38.26032 | 13.34454 | 3994 ft | 203 kts | 251° |
| 2026-05-01 12:42 | 38.25508 | 13.32828 | 3851 ft | 195 kts | 251° |
| 2026-05-01 12:43 | 38.25002 | 13.31260 | 3648 ft | 189 kts | 251° |
| 2026-05-01 12:43 | 38.24504 | 13.29738 | 3452 ft | 184 kts | 250° |
| 2026-05-01 12:43 | 38.24026 | 13.28270 | 3306 ft | 176 kts | 250° |
| 2026-05-01 12:43 | 38.23556 | 13.26867 | 3115 ft | 169 kts | 250° |
| 2026-05-01 12:44 | 38.23108 | 13.25522 | 2866 ft | 162 kts | 249° |
| 2026-05-01 12:44 | 38.22688 | 13.24257 | 2608 ft | 159 kts | 249° |
| 2026-05-01 12:44 | 38.21813 | 13.21669 | 2090 ft | 152 kts | 248° |
| 2026-05-01 12:45 | 38.20965 | 13.19241 | 1583 ft | 151 kts | 248° |
| 2026-05-01 12:45 | 38.20544 | 13.18021 | 1346 ft | 150 kts | 249° |
| 2026-05-01 12:45 | 38.20144 | 13.16803 | 1105 ft | 149 kts | 248° |
| 2026-05-01 12:46 | 38.19722 | 13.15584 | 883 ft | 149 kts | 248° |
| 2026-05-01 12:46 | 38.19341 | 13.14373 | 662 ft | 150 kts | 250° |
| 2026-05-01 12:46 | 38.18943 | 13.13145 | 385 ft | 152 kts | 249° |
| 2026-05-01 12:46 | 38.18524 | 13.11918 | 133 ft | 152 kts | 249° |
| 2026-05-01 12:47 | 38.18145 | 13.10730 | 70 ft | 135 kts | 246° |
| 2026-05-01 12:47 | 38.17850 | 13.09911 | 70 ft | 79 kts | 246° |
| 2026-05-01 12:47 | 38.17656 | 13.09339 | 68 ft | 53 kts | 246° |
| 2026-05-01 12:47 | 38.17622 | 13.09234 | 67 ft | 1 kts | 255° |
| 2026-05-01 12:48 | 38.17651 | 13.09168 | 84 ft | 8 kts | 341° |
| 2026-05-01 12:48 | 38.17768 | 13.09204 | 85 ft | 26 kts | 25° |
| 2026-05-01 12:48 | 38.17883 | 13.09380 | 70 ft | 29 kts | 65° |
| 2026-05-01 12:48 | 38.17975 | 13.09644 | 63 ft | 38 kts | 66° |
| 2026-05-01 12:49 | 38.18080 | 13.09954 | 63 ft | 38 kts | 66° |
| 2026-05-01 12:49 | 38.18182 | 13.10259 | 65 ft | 35 kts | 66° |
| 2026-05-01 12:49 | 38.18344 | 13.10447 | 61 ft | 32 kts | 44° |
| 2026-05-01 12:49 | 38.18512 | 13.10488 | 67 ft | 16 kts | 329° |
| 2026-05-01 12:50 | 38.18521 | 13.10484 | 61 ft | 0 kts | 339° |